SWA2583 KDEN-KBZN
Flight info
| Callsign | SWA2583 |
|---|---|
| Flight time | 1h 21m |
| Altitude | 38000 |
| Route | XXWNG1 XXWNG TOCUD LOSST1 |
| Aircraft | B738/M-SDE2E3FGHIRWXY/LB1 |
Departure
| Time | 2026-04-23 04:34 |
|---|---|
| Airport | Denver International Airport (KDEN) |
Arrival
| Time | 2026-04-23 05:55 |
|---|---|
| Airport | Bozeman Yellowstone International Airport (KBZN) |
| Time | Latitude | Longitude | Altitude | Speed | Heading |
|---|---|---|---|---|---|
| 2026-04-23 04:06 | 39.86252 | -104.66999 | 5371 ft | 0 kts | 0° |
| 2026-04-23 04:22 | 39.86250 | -104.66999 | 5376 ft | 2 kts | 0° |
| 2026-04-23 04:22 | 39.86225 | -104.66999 | 5374 ft | 4 kts | 0° |
| 2026-04-23 04:23 | 39.86198 | -104.66999 | 5372 ft | 4 kts | 0° |
| 2026-04-23 04:23 | 39.86174 | -104.66999 | 5372 ft | 0 kts | 0° |
| 2026-04-23 04:25 | 39.86178 | -104.66995 | 5376 ft | 2 kts | 32° |
| 2026-04-23 04:26 | 39.86184 | -104.66961 | 5375 ft | 8 kts | 86° |
| 2026-04-23 04:26 | 39.86185 | -104.66861 | 5376 ft | 14 kts | 90° |
| 2026-04-23 04:26 | 39.86185 | -104.66726 | 5376 ft | 16 kts | 90° |
| 2026-04-23 04:26 | 39.86184 | -104.66590 | 5376 ft | 13 kts | 90° |
| 2026-04-23 04:27 | 39.86158 | -104.66516 | 5377 ft | 9 kts | 159° |
| 2026-04-23 04:27 | 39.86112 | -104.66472 | 5373 ft | 8 kts | 118° |
| 2026-04-23 04:27 | 39.86106 | -104.66400 | 5379 ft | 8 kts | 90° |
| 2026-04-23 04:28 | 39.86114 | -104.66256 | 5383 ft | 8 kts | 59° |
| 2026-04-23 04:28 | 39.86183 | -104.66228 | 5381 ft | 13 kts | 359° |
| 2026-04-23 04:28 | 39.86280 | -104.66227 | 5381 ft | 14 kts | 0° |
| 2026-04-23 04:28 | 39.86375 | -104.66226 | 5381 ft | 13 kts | 0° |
| 2026-04-23 04:29 | 39.86463 | -104.66224 | 5378 ft | 9 kts | 7° |
| 2026-04-23 04:29 | 39.86499 | -104.66164 | 5382 ft | 9 kts | 88° |
| 2026-04-23 04:29 | 39.86499 | -104.66063 | 5376 ft | 14 kts | 90° |
| 2026-04-23 04:29 | 39.86497 | -104.65923 | 5374 ft | 17 kts | 90° |
| 2026-04-23 04:30 | 39.86496 | -104.65760 | 5374 ft | 18 kts | 90° |
| 2026-04-23 04:30 | 39.86495 | -104.65599 | 5369 ft | 17 kts | 90° |
| 2026-04-23 04:30 | 39.86494 | -104.65443 | 5365 ft | 17 kts | 90° |
| 2026-04-23 04:30 | 39.86493 | -104.65293 | 5363 ft | 16 kts | 91° |
| 2026-04-23 04:31 | 39.86492 | -104.65149 | 5360 ft | 16 kts | 90° |
| 2026-04-23 04:31 | 39.86491 | -104.65011 | 5358 ft | 15 kts | 90° |
| 2026-04-23 04:31 | 39.86490 | -104.64862 | 5355 ft | 18 kts | 90° |
| 2026-04-23 04:31 | 39.86488 | -104.64692 | 5351 ft | 14 kts | 90° |
| 2026-04-23 04:32 | 39.86487 | -104.64562 | 5348 ft | 15 kts | 90° |
| 2026-04-23 04:32 | 39.86486 | -104.64416 | 5345 ft | 17 kts | 90° |
| 2026-04-23 04:32 | 39.86486 | -104.64266 | 5347 ft | 16 kts | 90° |
| 2026-04-23 04:32 | 39.86482 | -104.64151 | 5346 ft | 7 kts | 110° |
| 2026-04-23 04:33 | 39.86442 | -104.64131 | 5344 ft | 6 kts | 180° |
| 2026-04-23 04:33 | 39.86390 | -104.64132 | 5345 ft | 12 kts | 180° |
| 2026-04-23 04:33 | 39.86079 | -104.64136 | 5348 ft | 78 kts | 180° |
| 2026-04-23 04:33 | 39.85330 | -104.64146 | 5355 ft | 135 kts | 181° |
| 2026-04-23 04:34 | 39.84244 | -104.64167 | 5432 ft | 175 kts | 186° |
| 2026-04-23 04:34 | 39.82998 | -104.64175 | 6124 ft | 183 kts | 182° |
| 2026-04-23 04:34 | 39.81787 | -104.63613 | 6806 ft | 199 kts | 149° |
| 2026-04-23 04:34 | 39.80933 | -104.62075 | 7330 ft | 225 kts | 115° |
| 2026-04-23 04:35 | 39.80711 | -104.59955 | 7553 ft | 254 kts | 84° |
| 2026-04-23 04:35 | 39.81180 | -104.57670 | 7921 ft | 264 kts | 72° |
| 2026-04-23 04:35 | 39.81759 | -104.55334 | 8135 ft | 283 kts | 72° |
| 2026-04-23 04:35 | 39.82381 | -104.52810 | 8380 ft | 302 kts | 72° |
| 2026-04-23 04:36 | 39.83055 | -104.50092 | 8600 ft | 324 kts | 72° |
| 2026-04-23 04:36 | 39.83865 | -104.47375 | 9482 ft | 321 kts | 58° |
| 2026-04-23 04:36 | 39.85321 | -104.45210 | 10188 ft | 319 kts | 33° |
| 2026-04-23 04:36 | 39.87324 | -104.43888 | 10493 ft | 331 kts | 13° |
| 2026-04-23 04:37 | 39.89618 | -104.43117 | 10685 ft | 350 kts | 8° |
| 2026-04-23 04:37 | 39.92042 | -104.42431 | 11144 ft | 360 kts | 7° |
| 2026-04-23 04:37 | 39.94506 | -104.41757 | 11801 ft | 364 kts | 7° |
| 2026-04-23 04:37 | 39.96989 | -104.41082 | 12496 ft | 367 kts | 7° |
| 2026-04-23 04:38 | 39.99513 | -104.40678 | 13172 ft | 365 kts | 354° |
| 2026-04-23 04:38 | 40.02013 | -104.41066 | 13824 ft | 363 kts | 342° |
| 2026-04-23 04:38 | 40.04407 | -104.42135 | 14381 ft | 364 kts | 332° |
| 2026-04-23 04:38 | 40.06740 | -104.43472 | 15084 ft | 367 kts | 331° |
| 2026-04-23 04:39 | 40.09087 | -104.44845 | 15716 ft | 371 kts | 331° |
| 2026-04-23 04:39 | 40.11456 | -104.46233 | 16389 ft | 376 kts | 331° |
| 2026-04-23 04:39 | 40.13831 | -104.47618 | 17055 ft | 381 kts | 331° |
| 2026-04-23 04:39 | 40.16270 | -104.49032 | 17727 ft | 385 kts | 331° |
| 2026-04-23 04:40 | 40.18740 | -104.50457 | 18324 ft | 389 kts | 331° |
| 2026-04-23 04:40 | 40.21232 | -104.51891 | 18916 ft | 393 kts | 331° |
| 2026-04-23 04:40 | 40.23750 | -104.53338 | 19444 ft | 399 kts | 331° |
| 2026-04-23 04:40 | 40.26314 | -104.54813 | 19984 ft | 404 kts | 331° |
| 2026-04-23 04:41 | 40.28900 | -104.56298 | 20591 ft | 407 kts | 330° |
| 2026-04-23 04:41 | 40.31502 | -104.57794 | 21201 ft | 409 kts | 330° |
| 2026-04-23 04:41 | 40.34119 | -104.59300 | 21783 ft | 413 kts | 330° |
| 2026-04-23 04:41 | 40.36760 | -104.60822 | 22321 ft | 417 kts | 330° |
| 2026-04-23 04:42 | 40.39427 | -104.62360 | 22864 ft | 420 kts | 330° |
| 2026-04-23 04:42 | 40.42113 | -104.63910 | 23376 ft | 424 kts | 330° |
| 2026-04-23 04:42 | 40.44820 | -104.65475 | 23822 ft | 427 kts | 330° |
| 2026-04-23 04:42 | 40.47550 | -104.67053 | 24300 ft | 429 kts | 330° |
| 2026-04-23 04:43 | 40.50288 | -104.68637 | 24780 ft | 431 kts | 329° |
| 2026-04-23 04:43 | 40.53045 | -104.70234 | 25238 ft | 434 kts | 329° |
| 2026-04-23 04:43 | 40.55817 | -104.71841 | 25679 ft | 437 kts | 329° |
| 2026-04-23 04:43 | 40.58607 | -104.73460 | 26121 ft | 439 kts | 329° |
| 2026-04-23 04:44 | 40.61378 | -104.75069 | 26575 ft | 442 kts | 329° |
| 2026-04-23 04:44 | 40.64200 | -104.76710 | 26978 ft | 445 kts | 329° |
| 2026-04-23 04:44 | 40.67040 | -104.78363 | 27372 ft | 448 kts | 329° |
| 2026-04-23 04:44 | 40.69902 | -104.80030 | 27765 ft | 450 kts | 329° |
| 2026-04-23 04:45 | 40.72771 | -104.81702 | 28160 ft | 453 kts | 329° |
| 2026-04-23 04:45 | 40.75667 | -104.83392 | 28546 ft | 455 kts | 329° |
| 2026-04-23 04:45 | 40.78564 | -104.85094 | 28920 ft | 457 kts | 327° |
| 2026-04-23 04:45 | 40.81390 | -104.86998 | 29312 ft | 456 kts | 324° |
| 2026-04-23 04:46 | 40.84162 | -104.89054 | 29581 ft | 459 kts | 322° |
| 2026-04-23 04:46 | 40.86937 | -104.91188 | 29852 ft | 463 kts | 322° |
| 2026-04-23 04:46 | 40.89721 | -104.93337 | 30224 ft | 464 kts | 322° |
| 2026-04-23 04:46 | 40.92525 | -104.95488 | 30502 ft | 467 kts | 322° |
| 2026-04-23 04:47 | 40.95317 | -104.97610 | 30834 ft | 468 kts | 322° |
| 2026-04-23 04:47 | 40.98147 | -104.99743 | 31266 ft | 467 kts | 322° |
| 2026-04-23 04:47 | 41.00964 | -105.01857 | 31633 ft | 465 kts | 322° |
| 2026-04-23 04:47 | 41.03785 | -105.03972 | 31996 ft | 465 kts | 322° |
| 2026-04-23 04:48 | 41.06597 | -105.06085 | 32339 ft | 465 kts | 322° |
| 2026-04-23 04:48 | 41.09417 | -105.08205 | 32727 ft | 465 kts | 322° |
| 2026-04-23 04:48 | 41.12227 | -105.10320 | 33136 ft | 463 kts | 322° |
| 2026-04-23 04:48 | 41.15029 | -105.12432 | 33527 ft | 462 kts | 322° |
| 2026-04-23 04:49 | 41.17819 | -105.14538 | 33835 ft | 462 kts | 322° |
| 2026-04-23 04:49 | 41.20622 | -105.16657 | 34153 ft | 462 kts | 322° |
| 2026-04-23 04:49 | 41.23411 | -105.18767 | 34444 ft | 461 kts | 322° |
| 2026-04-23 04:49 | 41.26193 | -105.20873 | 34780 ft | 459 kts | 322° |
| 2026-04-23 04:50 | 41.28967 | -105.22975 | 35155 ft | 458 kts | 322° |
| 2026-04-23 04:50 | 41.31694 | -105.25044 | 35452 ft | 457 kts | 322° |
| 2026-04-23 04:50 | 41.34455 | -105.27142 | 35752 ft | 457 kts | 322° |
| 2026-04-23 04:50 | 41.37218 | -105.29244 | 36083 ft | 456 kts | 322° |
| 2026-04-23 04:51 | 41.42785 | -105.33488 | 36248 ft | 465 kts | 323° |
| 2026-04-23 04:51 | 41.45524 | -105.35743 | 36512 ft | 459 kts | 316° |
| 2026-04-23 04:51 | 41.47950 | -105.38439 | 36856 ft | 449 kts | 308° |
| 2026-04-23 04:52 | 41.49991 | -105.41513 | 37043 ft | 441 kts | 301° |
| 2026-04-23 04:52 | 41.51873 | -105.44734 | 37235 ft | 441 kts | 300° |
| 2026-04-23 04:52 | 41.53744 | -105.47993 | 37438 ft | 441 kts | 300° |
| 2026-04-23 04:52 | 41.55586 | -105.51207 | 37683 ft | 441 kts | 300° |
| 2026-04-23 04:53 | 41.59364 | -105.57767 | 37715 ft | 448 kts | 301° |
| 2026-04-23 04:53 | 41.63181 | -105.64332 | 37717 ft | 445 kts | 301° |
| 2026-04-23 04:54 | 41.66977 | -105.70846 | 37713 ft | 443 kts | 302° |
| 2026-04-23 04:54 | 41.70767 | -105.77366 | 37719 ft | 447 kts | 302° |
| 2026-04-23 04:55 | 41.74617 | -105.84011 | 37729 ft | 454 kts | 302° |
| 2026-04-23 04:55 | 41.78500 | -105.90721 | 37720 ft | 456 kts | 302° |
| 2026-04-23 04:56 | 41.82397 | -105.97469 | 37727 ft | 458 kts | 302° |
| 2026-04-23 04:56 | 41.86279 | -106.04202 | 37724 ft | 450 kts | 302° |
| 2026-04-23 04:57 | 41.90047 | -106.10746 | 37732 ft | 442 kts | 303° |
| 2026-04-23 04:57 | 41.93807 | -106.17313 | 37751 ft | 450 kts | 303° |
| 2026-04-23 04:58 | 41.97662 | -106.24062 | 37754 ft | 458 kts | 303° |
| 2026-04-23 04:58 | 42.01551 | -106.30874 | 37742 ft | 461 kts | 303° |
| 2026-04-23 04:59 | 42.05458 | -106.37727 | 37797 ft | 462 kts | 303° |
| 2026-04-23 04:59 | 42.09090 | -106.44112 | 37735 ft | 456 kts | 303° |
| 2026-04-23 05:00 | 42.12903 | -106.50828 | 37753 ft | 453 kts | 303° |
| 2026-04-23 05:00 | 42.16723 | -106.57581 | 37743 ft | 453 kts | 302° |
| 2026-04-23 05:01 | 42.20535 | -106.64336 | 37744 ft | 452 kts | 302° |
| 2026-04-23 05:01 | 42.24348 | -106.71105 | 37769 ft | 453 kts | 302° |
| 2026-04-23 05:02 | 42.28165 | -106.77896 | 37735 ft | 454 kts | 302° |
| 2026-04-23 05:02 | 42.31982 | -106.84701 | 37730 ft | 455 kts | 302° |
| 2026-04-23 05:03 | 42.35801 | -106.91525 | 37730 ft | 455 kts | 302° |
| 2026-04-23 05:03 | 42.39615 | -106.98356 | 37732 ft | 454 kts | 303° |
| 2026-04-23 05:04 | 42.43420 | -107.05187 | 37740 ft | 454 kts | 303° |
| 2026-04-23 05:04 | 42.47210 | -107.12005 | 37715 ft | 453 kts | 303° |
| 2026-04-23 05:05 | 42.50991 | -107.18823 | 37714 ft | 451 kts | 303° |
| 2026-04-23 05:05 | 42.54721 | -107.25567 | 37713 ft | 450 kts | 303° |
| 2026-04-23 05:06 | 42.58466 | -107.32351 | 37698 ft | 448 kts | 303° |
| 2026-04-23 05:06 | 42.62195 | -107.39122 | 37709 ft | 447 kts | 303° |
| 2026-04-23 05:07 | 42.65906 | -107.45877 | 37702 ft | 446 kts | 303° |
| 2026-04-23 05:07 | 42.69607 | -107.52626 | 37701 ft | 445 kts | 303° |
| 2026-04-23 05:08 | 42.73299 | -107.59375 | 37688 ft | 444 kts | 303° |
| 2026-04-23 05:08 | 42.76976 | -107.66113 | 37673 ft | 443 kts | 303° |
| 2026-04-23 05:09 | 42.80653 | -107.72866 | 37674 ft | 443 kts | 303° |
| 2026-04-23 05:09 | 42.84267 | -107.79519 | 37680 ft | 443 kts | 303° |
| 2026-04-23 05:10 | 42.86697 | -107.84001 | 37687 ft | 442 kts | 303° |
| 2026-04-23 05:10 | 42.90338 | -107.90727 | 37654 ft | 442 kts | 302° |
| 2026-04-23 05:11 | 42.93962 | -107.97436 | 37646 ft | 442 kts | 302° |
| 2026-04-23 05:11 | 42.97600 | -108.04187 | 37664 ft | 441 kts | 302° |
| 2026-04-23 05:12 | 43.01135 | -108.10762 | 37695 ft | 441 kts | 303° |
| 2026-04-23 05:12 | 43.04731 | -108.17467 | 37723 ft | 441 kts | 302° |
| 2026-04-23 05:13 | 43.08358 | -108.24243 | 37740 ft | 441 kts | 302° |
| 2026-04-23 05:14 | 43.13795 | -108.34431 | 37777 ft | 442 kts | 303° |
| 2026-04-23 05:14 | 43.16804 | -108.40085 | 37776 ft | 442 kts | 303° |
| 2026-04-23 05:15 | 43.20422 | -108.46895 | 37768 ft | 442 kts | 303° |
| 2026-04-23 05:15 | 43.24037 | -108.53716 | 37734 ft | 442 kts | 303° |
| 2026-04-23 05:16 | 43.27638 | -108.60527 | 37706 ft | 441 kts | 303° |
| 2026-04-23 05:16 | 43.31208 | -108.67296 | 37677 ft | 440 kts | 303° |
| 2026-04-23 05:17 | 43.34519 | -108.73588 | 37655 ft | 439 kts | 303° |
| 2026-04-23 05:17 | 43.37229 | -108.78748 | 37667 ft | 438 kts | 302° |
| 2026-04-23 05:18 | 43.39960 | -108.83958 | 37651 ft | 438 kts | 302° |
| 2026-04-23 05:18 | 43.42434 | -108.88701 | 37657 ft | 437 kts | 303° |
| 2026-04-23 05:19 | 43.44685 | -108.93037 | 37662 ft | 436 kts | 302° |
| 2026-04-23 05:19 | 43.46628 | -108.96737 | 37673 ft | 436 kts | 302° |
| 2026-04-23 05:19 | 43.47646 | -108.98417 | 37635 ft | 440 kts | 315° |
| 2026-04-23 05:20 | 43.49399 | -109.00466 | 37393 ft | 446 kts | 315° |
| 2026-04-23 05:20 | 43.51581 | -109.03447 | 37543 ft | 438 kts | 307° |
| 2026-04-23 05:20 | 43.53442 | -109.06734 | 37620 ft | 432 kts | 302° |
| 2026-04-23 05:21 | 43.56849 | -109.13528 | 37712 ft | 430 kts | 300° |
| 2026-04-23 05:21 | 43.60219 | -109.20336 | 37722 ft | 430 kts | 301° |
| 2026-04-23 05:22 | 43.62923 | -109.25760 | 37709 ft | 430 kts | 302° |
| 2026-04-23 05:22 | 43.64511 | -109.28995 | 37670 ft | 430 kts | 301° |
| 2026-04-23 05:23 | 43.65856 | -109.32212 | 37772 ft | 426 kts | 293° |
| 2026-04-23 05:23 | 43.67383 | -109.36124 | 37845 ft | 426 kts | 299° |
| 2026-04-23 05:24 | 43.68393 | -109.38293 | 37717 ft | 427 kts | 294° |
| 2026-04-23 05:24 | 43.71521 | -109.45168 | 37776 ft | 428 kts | 302° |
| 2026-04-23 05:25 | 43.74956 | -109.51826 | 37776 ft | 431 kts | 302° |
| 2026-04-23 05:25 | 43.78460 | -109.58574 | 37799 ft | 433 kts | 302° |
| 2026-04-23 05:26 | 43.81957 | -109.65375 | 37801 ft | 434 kts | 302° |
| 2026-04-23 05:26 | 43.85455 | -109.72222 | 37819 ft | 437 kts | 302° |
| 2026-04-23 05:27 | 43.88970 | -109.79129 | 37820 ft | 439 kts | 302° |
| 2026-04-23 05:27 | 43.90734 | -109.82599 | 37640 ft | 442 kts | 302° |
| 2026-04-23 05:27 | 43.92505 | -109.86088 | 37374 ft | 441 kts | 302° |
| 2026-04-23 05:27 | 43.94261 | -109.89547 | 37111 ft | 435 kts | 302° |
| 2026-04-23 05:28 | 43.95968 | -109.92914 | 36867 ft | 427 kts | 301° |
| 2026-04-23 05:28 | 43.97681 | -109.96296 | 36602 ft | 419 kts | 301° |
| 2026-04-23 05:28 | 43.99321 | -109.99542 | 36345 ft | 413 kts | 301° |
| 2026-04-23 05:28 | 44.00961 | -110.02794 | 36094 ft | 408 kts | 302° |
| 2026-04-23 05:29 | 44.02575 | -110.05994 | 35789 ft | 403 kts | 302° |
| 2026-04-23 05:29 | 44.04187 | -110.09195 | 35438 ft | 403 kts | 303° |
| 2026-04-23 05:29 | 44.05979 | -110.12235 | 35067 ft | 414 kts | 313° |
| 2026-04-23 05:29 | 44.08169 | -110.14922 | 34634 ft | 425 kts | 321° |
| 2026-04-23 05:30 | 44.10677 | -110.17112 | 34222 ft | 425 kts | 329° |
| 2026-04-23 05:30 | 44.13270 | -110.19051 | 33780 ft | 421 kts | 329° |
| 2026-04-23 05:30 | 44.15858 | -110.20933 | 33359 ft | 418 kts | 331° |
| 2026-04-23 05:30 | 44.18423 | -110.22794 | 32938 ft | 413 kts | 331° |
| 2026-04-23 05:31 | 44.20956 | -110.24647 | 32531 ft | 409 kts | 331° |
| 2026-04-23 05:31 | 44.23459 | -110.26494 | 32144 ft | 405 kts | 331° |
| 2026-04-23 05:31 | 44.25936 | -110.28336 | 31760 ft | 401 kts | 331° |
| 2026-04-23 05:31 | 44.28379 | -110.30162 | 31374 ft | 397 kts | 331° |
| 2026-04-23 05:32 | 44.30800 | -110.31979 | 31007 ft | 393 kts | 331° |
| 2026-04-23 05:32 | 44.33197 | -110.33781 | 30641 ft | 389 kts | 331° |
| 2026-04-23 05:32 | 44.35565 | -110.35565 | 30280 ft | 385 kts | 332° |
| 2026-04-23 05:32 | 44.37915 | -110.37336 | 29918 ft | 381 kts | 332° |
| 2026-04-23 05:33 | 44.40239 | -110.39089 | 29481 ft | 378 kts | 332° |
| 2026-04-23 05:33 | 44.42541 | -110.40827 | 29094 ft | 373 kts | 332° |
| 2026-04-23 05:33 | 44.44811 | -110.42542 | 28714 ft | 368 kts | 332° |
| 2026-04-23 05:33 | 44.47042 | -110.44229 | 28329 ft | 364 kts | 332° |
| 2026-04-23 05:34 | 44.49256 | -110.45905 | 27968 ft | 359 kts | 332° |
| 2026-04-23 05:34 | 44.51445 | -110.47564 | 27594 ft | 355 kts | 332° |
| 2026-04-23 05:34 | 44.53580 | -110.49182 | 27237 ft | 352 kts | 332° |
| 2026-04-23 05:34 | 44.55721 | -110.50807 | 26861 ft | 348 kts | 332° |
| 2026-04-23 05:35 | 44.57844 | -110.52419 | 26507 ft | 345 kts | 332° |
| 2026-04-23 05:35 | 44.59945 | -110.54016 | 26152 ft | 342 kts | 332° |
| 2026-04-23 05:35 | 44.62029 | -110.55601 | 25798 ft | 339 kts | 332° |
| 2026-04-23 05:35 | 44.64096 | -110.57175 | 25447 ft | 337 kts | 332° |
| 2026-04-23 05:36 | 44.66145 | -110.58736 | 25109 ft | 334 kts | 332° |
| 2026-04-23 05:36 | 44.68182 | -110.60289 | 24749 ft | 331 kts | 332° |
| 2026-04-23 05:36 | 44.70199 | -110.61829 | 24414 ft | 330 kts | 333° |
| 2026-04-23 05:36 | 44.72213 | -110.63368 | 24086 ft | 328 kts | 333° |
| 2026-04-23 05:37 | 44.74212 | -110.64895 | 23739 ft | 326 kts | 333° |
| 2026-04-23 05:37 | 44.76163 | -110.66387 | 23404 ft | 325 kts | 333° |
| 2026-04-23 05:37 | 44.77948 | -110.67754 | 23058 ft | 324 kts | 332° |
| 2026-04-23 05:37 | 44.79515 | -110.68954 | 22759 ft | 323 kts | 332° |
| 2026-04-23 05:38 | 44.80424 | -110.69650 | 22587 ft | 322 kts | 332° |
| 2026-04-23 05:38 | 44.81504 | -110.70477 | 22387 ft | 321 kts | 332° |
| 2026-04-23 05:38 | 44.82473 | -110.71225 | 22210 ft | 320 kts | 332° |
| 2026-04-23 05:38 | 44.84424 | -110.72738 | 21890 ft | 318 kts | 332° |
| 2026-04-23 05:39 | 44.86361 | -110.74224 | 21549 ft | 316 kts | 332° |
| 2026-04-23 05:39 | 44.88289 | -110.75700 | 21210 ft | 315 kts | 332° |
| 2026-04-23 05:39 | 44.90205 | -110.77170 | 20884 ft | 313 kts | 332° |
| 2026-04-23 05:39 | 44.92115 | -110.78637 | 20543 ft | 311 kts | 332° |
| 2026-04-23 05:40 | 44.94012 | -110.80097 | 20217 ft | 310 kts | 331° |
| 2026-04-23 05:40 | 44.95904 | -110.81555 | 19889 ft | 309 kts | 331° |
| 2026-04-23 05:40 | 44.97785 | -110.83006 | 19559 ft | 308 kts | 331° |
| 2026-04-23 05:40 | 44.99647 | -110.84444 | 19240 ft | 307 kts | 331° |
| 2026-04-23 05:41 | 45.01403 | -110.85801 | 18925 ft | 306 kts | 330° |
| 2026-04-23 05:41 | 45.03010 | -110.87044 | 18654 ft | 306 kts | 330° |
| 2026-04-23 05:41 | 45.04320 | -110.88058 | 18390 ft | 307 kts | 331° |
| 2026-04-23 05:41 | 45.05740 | -110.89157 | 18145 ft | 307 kts | 331° |
| 2026-04-23 05:42 | 45.06138 | -110.89466 | 18076 ft | 307 kts | 331° |
| 2026-04-23 05:42 | 45.07121 | -110.90228 | 17957 ft | 304 kts | 330° |
| 2026-04-23 05:43 | 45.08028 | -110.90930 | 17867 ft | 301 kts | 330° |
| 2026-04-23 05:43 | 45.09859 | -110.92349 | 17560 ft | 299 kts | 330° |
| 2026-04-23 05:43 | 45.11674 | -110.93757 | 17223 ft | 296 kts | 330° |
| 2026-04-23 05:43 | 45.13479 | -110.95162 | 16937 ft | 295 kts | 329° |
| 2026-04-23 05:44 | 45.15232 | -110.96666 | 16630 ft | 294 kts | 327° |
| 2026-04-23 05:44 | 45.16946 | -110.98228 | 16334 ft | 292 kts | 326° |
| 2026-04-23 05:44 | 45.18646 | -110.99793 | 16032 ft | 290 kts | 326° |
| 2026-04-23 05:44 | 45.20333 | -111.01342 | 15752 ft | 288 kts | 326° |
| 2026-04-23 05:45 | 45.22017 | -111.02883 | 15480 ft | 288 kts | 327° |
| 2026-04-23 05:45 | 45.23702 | -111.04420 | 15200 ft | 288 kts | 327° |
| 2026-04-23 05:45 | 45.25386 | -111.05954 | 14920 ft | 288 kts | 327° |
| 2026-04-23 05:45 | 45.27074 | -111.07490 | 14632 ft | 288 kts | 327° |
| 2026-04-23 05:46 | 45.28764 | -111.09027 | 14340 ft | 288 kts | 327° |
| 2026-04-23 05:46 | 45.30451 | -111.10563 | 14067 ft | 288 kts | 327° |
| 2026-04-23 05:46 | 45.32140 | -111.12102 | 13780 ft | 289 kts | 327° |
| 2026-04-23 05:46 | 45.33830 | -111.13641 | 13488 ft | 289 kts | 327° |
| 2026-04-23 05:47 | 45.35514 | -111.15176 | 13153 ft | 285 kts | 326° |
| 2026-04-23 05:47 | 45.37180 | -111.16698 | 12856 ft | 283 kts | 326° |
| 2026-04-23 05:47 | 45.38834 | -111.18208 | 12573 ft | 281 kts | 326° |
| 2026-04-23 05:47 | 45.40455 | -111.19688 | 12301 ft | 272 kts | 326° |
| 2026-04-23 05:48 | 45.42089 | -111.20976 | 11999 ft | 267 kts | 341° |
| 2026-04-23 05:48 | 45.43920 | -111.21140 | 11789 ft | 264 kts | 5° |
| 2026-04-23 05:48 | 45.45659 | -111.20389 | 11482 ft | 267 kts | 22° |
| 2026-04-23 05:48 | 45.47324 | -111.19148 | 11266 ft | 272 kts | 25° |
| 2026-04-23 05:49 | 45.48988 | -111.17839 | 10982 ft | 274 kts | 25° |
| 2026-04-23 05:49 | 45.50657 | -111.16537 | 10728 ft | 270 kts | 25° |
| 2026-04-23 05:49 | 45.52326 | -111.15339 | 10269 ft | 269 kts | 19° |
| 2026-04-23 05:49 | 45.54070 | -111.14385 | 9852 ft | 269 kts | 17° |
| 2026-04-23 05:50 | 45.55833 | -111.13458 | 9370 ft | 271 kts | 17° |
| 2026-04-23 05:50 | 45.57596 | -111.12525 | 8904 ft | 270 kts | 17° |
| 2026-04-23 05:50 | 45.59339 | -111.11590 | 8377 ft | 263 kts | 17° |
| 2026-04-23 05:50 | 45.61020 | -111.10678 | 7946 ft | 253 kts | 16° |
| 2026-04-23 05:51 | 45.62625 | -111.09799 | 7599 ft | 240 kts | 15° |
| 2026-04-23 05:51 | 45.64125 | -111.08977 | 7289 ft | 222 kts | 14° |
| 2026-04-23 05:51 | 45.65513 | -111.08217 | 7056 ft | 206 kts | 16° |
| 2026-04-23 05:51 | 45.66839 | -111.07494 | 6773 ft | 203 kts | 15° |
| 2026-04-23 05:52 | 45.68116 | -111.06799 | 6490 ft | 193 kts | 18° |
| 2026-04-23 05:52 | 45.69348 | -111.06290 | 6276 ft | 178 kts | 3° |
| 2026-04-23 05:52 | 45.70528 | -111.06383 | 6145 ft | 164 kts | 342° |
| 2026-04-23 05:52 | 45.71578 | -111.06940 | 6011 ft | 162 kts | 327° |
| 2026-04-23 05:53 | 45.72479 | -111.07903 | 5796 ft | 162 kts | 316° |
| 2026-04-23 05:53 | 45.73304 | -111.08991 | 5575 ft | 160 kts | 312° |
| 2026-04-23 05:53 | 45.74088 | -111.10081 | 5363 ft | 154 kts | 313° |
| 2026-04-23 05:53 | 45.74828 | -111.11133 | 5157 ft | 146 kts | 314° |
| 2026-04-23 05:54 | 45.75548 | -111.12133 | 4924 ft | 142 kts | 316° |
| 2026-04-23 05:54 | 45.76250 | -111.13102 | 4732 ft | 139 kts | 317° |
| 2026-04-23 05:54 | 45.76940 | -111.14056 | 4549 ft | 140 kts | 319° |
| 2026-04-23 05:54 | 45.77616 | -111.14989 | 4480 ft | 116 kts | 315° |
| 2026-04-23 05:55 | 45.78051 | -111.15590 | 4482 ft | 64 kts | 316° |
| 2026-04-23 05:55 | 45.78287 | -111.15923 | 4483 ft | 20 kts | 315° |
| 2026-04-23 05:55 | 45.78292 | -111.16009 | 4479 ft | 9 kts | 230° |
| 2026-04-23 05:55 | 45.78249 | -111.16077 | 4480 ft | 9 kts | 224° |
| 2026-04-23 05:56 | 45.78204 | -111.16138 | 4480 ft | 8 kts | 225° |
| 2026-04-23 05:56 | 45.78202 | -111.16205 | 4480 ft | 9 kts | 298° |
| 2026-04-23 05:56 | 45.78251 | -111.16281 | 4480 ft | 10 kts | 316° |
| 2026-04-23 05:56 | 45.78294 | -111.16361 | 4480 ft | 10 kts | 276° |
| 2026-04-23 05:57 | 45.78256 | -111.16441 | 4483 ft | 10 kts | 227° |
| 2026-04-23 05:57 | 45.78197 | -111.16451 | 4483 ft | 10 kts | 144° |
| 2026-04-23 05:57 | 45.78149 | -111.16386 | 4480 ft | 9 kts | 138° |
| 2026-04-23 05:57 | 45.78090 | -111.16351 | 4482 ft | 9 kts | 163° |
| 2026-04-23 05:58 | 45.78039 | -111.16326 | 4480 ft | 5 kts | 161° |
| 2026-04-23 05:58 | 45.78026 | -111.16319 | 4484 ft | 1 kts | 161° |
| 2026-04-23 05:58 | 45.78021 | -111.16317 | 4480 ft | 0 kts | 161° |